sensor_id;sensor_type;location;lat;lon;timestamp;temperature;humidity
83472;SHT30;74051;47.120;18.370;2023-12-20T00:01:17;0.17;97.70
83472;SHT30;74051;47.120;18.370;2023-12-20T00:03:43;0.08;97.80
83472;SHT30;74051;47.120;18.370;2023-12-20T00:06:10;-0.05;96.53
83472;SHT30;74051;47.120;18.370;2023-12-20T00:08:37;-0.10;97.51
83472;SHT30;74051;47.120;18.370;2023-12-20T00:11:03;-0.03;97.14
83472;SHT30;74051;47.120;18.370;2023-12-20T00:13:30;-0.07;96.88
83472;SHT30;74051;47.120;18.370;2023-12-20T00:15:56;-0.07;97.06
83472;SHT30;74051;47.120;18.370;2023-12-20T00:18:23;-0.16;97.23
83472;SHT30;74051;47.120;18.370;2023-12-20T00:20:49;-0.19;96.45
83472;SHT30;74051;47.120;18.370;2023-12-20T00:23:16;-0.27;95.85
83472;SHT30;74051;47.120;18.370;2023-12-20T00:25:42;-0.37;96.46
83472;SHT30;74051;47.120;18.370;2023-12-20T00:28:09;-0.31;97.86
83472;SHT30;74051;47.120;18.370;2023-12-20T00:30:35;-0.16;98.53
83472;SHT30;74051;47.120;18.370;2023-12-20T00:33:02;-0.13;97.34
83472;SHT30;74051;47.120;18.370;2023-12-20T00:35:28;-0.17;96.84
83472;SHT30;74051;47.120;18.370;2023-12-20T00:37:54;-0.27;96.91
83472;SHT30;74051;47.120;18.370;2023-12-20T00:40:21;-0.21;96.48
83472;SHT30;74051;47.120;18.370;2023-12-20T00:42:48;-0.30;96.75
83472;SHT30;74051;47.120;18.370;2023-12-20T00:45:14;-0.51;96.50
83472;SHT30;74051;47.120;18.370;2023-12-20T00:47:41;-0.44;97.90
83472;SHT30;74051;47.120;18.370;2023-12-20T00:50:08;-0.44;97.75
83472;SHT30;74051;47.120;18.370;2023-12-20T00:52:36;-0.17;98.19
83472;SHT30;74051;47.120;18.370;2023-12-20T00:55:03;-0.30;96.30
83472;SHT30;74051;47.120;18.370;2023-12-20T00:57:31;-0.16;97.28
83472;SHT30;74051;47.120;18.370;2023-12-20T00:59:57;-0.17;97.92
83472;SHT30;74051;47.120;18.370;2023-12-20T01:02:24;-0.10;98.11
83472;SHT30;74051;47.120;18.370;2023-12-20T01:04:50;-0.20;97.83
83472;SHT30;74051;47.120;18.370;2023-12-20T01:07:16;-0.20;96.97
83472;SHT30;74051;47.120;18.370;2023-12-20T01:09:42;-0.27;96.59
83472;SHT30;74051;47.120;18.370;2023-12-20T01:12:08;-0.40;97.12
83472;SHT30;74051;47.120;18.370;2023-12-20T01:14:35;-0.60;96.47
83472;SHT30;74051;47.120;18.370;2023-12-20T01:17:01;-0.40;97.40
83472;SHT30;74051;47.120;18.370;2023-12-20T01:19:28;-0.36;98.41
83472;SHT30;74051;47.120;18.370;2023-12-20T01:21:55;-0.16;98.28
83472;SHT30;74051;47.120;18.370;2023-12-20T01:24:22;-0.26;97.69
83472;SHT30;74051;47.120;18.370;2023-12-20T01:26:48;-0.23;98.12
83472;SHT30;74051;47.120;18.370;2023-12-20T01:29:14;-0.17;98.44
83472;SHT30;74051;47.120;18.370;2023-12-20T01:31:41;-0.21;97.50
83472;SHT30;74051;47.120;18.370;2023-12-20T01:34:08;-0.14;98.09
83472;SHT30;74051;47.120;18.370;2023-12-20T01:36:34;-0.16;98.25
83472;SHT30;74051;47.120;18.370;2023-12-20T01:39:01;-0.10;96.82
83472;SHT30;74051;47.120;18.370;2023-12-20T01:41:27;-0.06;96.78
83472;SHT30;74051;47.120;18.370;2023-12-20T01:43:53;-0.09;97.30
83472;SHT30;74051;47.120;18.370;2023-12-20T01:46:20;-0.33;96.66
83472;SHT30;74051;47.120;18.370;2023-12-20T01:48:48;-0.31;97.23
83472;SHT30;74051;47.120;18.370;2023-12-20T01:51:15;-0.07;97.84
83472;SHT30;74051;47.120;18.370;2023-12-20T01:53:42;-0.20;96.83
83472;SHT30;74051;47.120;18.370;2023-12-20T01:56:08;-0.40;96.72
83472;SHT30;74051;47.120;18.370;2023-12-20T01:58:39;-0.31;96.57
83472;SHT30;74051;47.120;18.370;2023-12-20T02:01:11;-0.34;95.70
83472;SHT30;74051;47.120;18.370;2023-12-20T02:03:41;-0.45;96.16
83472;SHT30;74051;47.120;18.370;2023-12-20T02:06:08;-0.42;96.99
83472;SHT30;74051;47.120;18.370;2023-12-20T02:08:36;-0.45;98.30
83472;SHT30;74051;47.120;18.370;2023-12-20T02:11:02;-0.42;98.62
83472;SHT30;74051;47.120;18.370;2023-12-20T02:13:29;-0.47;97.38
83472;SHT30;74051;47.120;18.370;2023-12-20T02:15:56;-0.37;98.85
83472;SHT30;74051;47.120;18.370;2023-12-20T02:18:23;-0.38;98.65
83472;SHT30;74051;47.120;18.370;2023-12-20T02:20:50;-0.30;97.66
83472;SHT30;74051;47.120;18.370;2023-12-20T02:23:16;-0.37;98.01
83472;SHT30;74051;47.120;18.370;2023-12-20T02:25:43;-0.31;98.71
83472;SHT30;74051;47.120;18.370;2023-12-20T02:28:09;-0.29;98.94
83472;SHT30;74051;47.120;18.370;2023-12-20T02:30:36;-0.31;98.43
83472;SHT30;74051;47.120;18.370;2023-12-20T02:33:03;-0.27;98.10
83472;SHT30;74051;47.120;18.370;2023-12-20T02:35:32;-0.48;97.17
83472;SHT30;74051;47.120;18.370;2023-12-20T02:37:58;-0.41;98.55
83472;SHT30;74051;47.120;18.370;2023-12-20T02:40:25;-0.29;99.07
83472;SHT30;74051;47.120;18.370;2023-12-20T02:42:51;-0.31;98.77
83472;SHT30;74051;47.120;18.370;2023-12-20T02:45:17;-0.33;98.42
83472;SHT30;74051;47.120;18.370;2023-12-20T02:47:44;-0.19;98.96
83472;SHT30;74051;47.120;18.370;2023-12-20T02:50:10;-0.29;97.60
83472;SHT30;74051;47.120;18.370;2023-12-20T02:52:37;-0.14;98.93
83472;SHT30;74051;47.120;18.370;2023-12-20T02:55:03;-0.21;98.06
83472;SHT30;74051;47.120;18.370;2023-12-20T02:57:30;-0.26;97.72
83472;SHT30;74051;47.120;18.370;2023-12-20T02:59:56;-0.07;98.70
83472;SHT30;74051;47.120;18.370;2023-12-20T03:02:23;-0.03;98.55
83472;SHT30;74051;47.120;18.370;2023-12-20T03:04:49;0.08;97.87
83472;SHT30;74051;47.120;18.370;2023-12-20T03:07:15;0.04;96.68
83472;SHT30;74051;47.120;18.370;2023-12-20T03:09:42;-0.13;96.11
83472;SHT30;74051;47.120;18.370;2023-12-20T03:12:08;-0.14;98.09
83472;SHT30;74051;47.120;18.370;2023-12-20T03:14:35;-0.13;98.42
83472;SHT30;74051;47.120;18.370;2023-12-20T03:17:01;-0.10;98.11
83472;SHT30;74051;47.120;18.370;2023-12-20T03:19:27;-0.02;98.47
83472;SHT30;74051;47.120;18.370;2023-12-20T03:21:55;0.05;97.97
83472;SHT30;74051;47.120;18.370;2023-12-20T03:24:21;0.01;96.50
83472;SHT30;74051;47.120;18.370;2023-12-20T03:26:48;-0.21;94.92
83472;SHT30;74051;47.120;18.370;2023-12-20T03:29:14;-0.16;97.09
83472;SHT30;74051;47.120;18.370;2023-12-20T03:31:40;-0.09;95.98
83472;SHT30;74051;47.120;18.370;2023-12-20T03:34:07;0.04;97.30
83472;SHT30;74051;47.120;18.370;2023-12-20T03:36:33;0.00;96.35
83472;SHT30;74051;47.120;18.370;2023-12-20T03:38:59;-0.03;95.58
83472;SHT30;74051;47.120;18.370;2023-12-20T03:41:26;-0.16;94.29
83472;SHT30;74051;47.120;18.370;2023-12-20T03:43:52;-0.31;95.56
83472;SHT30;74051;47.120;18.370;2023-12-20T03:46:18;-0.10;95.81
83472;SHT30;74051;47.120;18.370;2023-12-20T03:48:45;-0.16;96.27
83472;SHT30;74051;47.120;18.370;2023-12-20T03:51:11;-0.19;94.52
83472;SHT30;74051;47.120;18.370;2023-12-20T03:53:38;-0.13;94.84
83472;SHT30;74051;47.120;18.370;2023-12-20T03:56:06;0.04;97.21
83472;SHT30;74051;47.120;18.370;2023-12-20T03:58:32;-0.09;94.91
83472;SHT30;74051;47.120;18.370;2023-12-20T04:00:59;-0.09;95.69
83472;SHT30;74051;47.120;18.370;2023-12-20T04:03:25;-0.06;96.06
83472;SHT30;74051;47.120;18.370;2023-12-20T04:05:52;0.02;96.22
83472;SHT30;74051;47.120;18.370;2023-12-20T04:08:18;-0.07;95.44
83472;SHT30;74051;47.120;18.370;2023-12-20T04:10:44;0.01;95.74
83472;SHT30;74051;47.120;18.370;2023-12-20T04:13:10;0.12;96.09
83472;SHT30;74051;47.120;18.370;2023-12-20T04:15:37;0.12;95.19
83472;SHT30;74051;47.120;18.370;2023-12-20T04:18:03;0.24;95.58
83472;SHT30;74051;47.120;18.370;2023-12-20T04:20:30;0.22;95.77
83472;SHT30;74051;47.120;18.370;2023-12-20T04:22:56;0.15;94.52
83472;SHT30;74051;47.120;18.370;2023-12-20T04:25:23;0.15;94.48
83472;SHT30;74051;47.120;18.370;2023-12-20T04:27:49;-0.02;93.62
83472;SHT30;74051;47.120;18.370;2023-12-20T04:30:15;-0.09;94.32
83472;SHT30;74051;47.120;18.370;2023-12-20T04:32:42;-0.09;94.07
83472;SHT30;74051;47.120;18.370;2023-12-20T04:35:08;0.00;94.39
83472;SHT30;74051;47.120;18.370;2023-12-20T04:37:34;0.01;95.43
83472;SHT30;74051;47.120;18.370;2023-12-20T04:40:01;-0.09;94.20
83472;SHT30;74051;47.120;18.370;2023-12-20T04:42:28;-0.06;93.98
83472;SHT30;74051;47.120;18.370;2023-12-20T04:44:54;0.04;96.20
83472;SHT30;74051;47.120;18.370;2023-12-20T04:47:20;0.02;94.79
83472;SHT30;74051;47.120;18.370;2023-12-20T04:49:46;-0.16;93.62
83472;SHT30;74051;47.120;18.370;2023-12-20T04:52:13;-0.07;95.91
83472;SHT30;74051;47.120;18.370;2023-12-20T04:54:39;-0.17;94.89
83472;SHT30;74051;47.120;18.370;2023-12-20T04:57:05;-0.17;94.77
83472;SHT30;74051;47.120;18.370;2023-12-20T04:59:32;-0.30;95.20
83472;SHT30;74051;47.120;18.370;2023-12-20T05:01:58;-0.03;97.33
83472;SHT30;74051;47.120;18.370;2023-12-20T05:04:25;-0.29;93.96
83472;SHT30;74051;47.120;18.370;2023-12-20T05:06:51;-0.31;95.84
83472;SHT30;74051;47.120;18.370;2023-12-20T05:09:18;-0.36;95.83
83472;SHT30;74051;47.120;18.370;2023-12-20T05:11:44;-0.20;95.94
83472;SHT30;74051;47.120;18.370;2023-12-20T05:14:11;-0.17;95.87
83472;SHT30;74051;47.120;18.370;2023-12-20T05:16:37;-0.14;93.67
83472;SHT30;74051;47.120;18.370;2023-12-20T05:19:03;-0.20;94.24
83472;SHT30;74051;47.120;18.370;2023-12-20T05:21:32;-0.29;94.46
83472;SHT30;74051;47.120;18.370;2023-12-20T05:23:59;-0.36;94.89
83472;SHT30;74051;47.120;18.370;2023-12-20T05:26:26;-0.21;96.87
83472;SHT30;74051;47.120;18.370;2023-12-20T05:28:52;-0.23;95.65
83472;SHT30;74051;47.120;18.370;2023-12-20T05:31:19;-0.17;95.54
83472;SHT30;74051;47.120;18.370;2023-12-20T05:33:45;-0.30;95.71
83472;SHT30;74051;47.120;18.370;2023-12-20T05:36:11;-0.30;96.26
83472;SHT30;74051;47.120;18.370;2023-12-20T05:38:39;-0.41;96.07
83472;SHT30;74051;47.120;18.370;2023-12-20T05:41:06;-0.47;96.03
83472;SHT30;74051;47.120;18.370;2023-12-20T05:43:32;-0.45;95.93
83472;SHT30;74051;47.120;18.370;2023-12-20T05:45:59;-0.41;95.53
83472;SHT30;74051;47.120;18.370;2023-12-20T05:48:26;-0.26;97.26
83472;SHT30;74051;47.120;18.370;2023-12-20T05:50:52;-0.30;95.60
83472;SHT30;74051;47.120;18.370;2023-12-20T05:53:19;-0.26;94.88
83472;SHT30;74051;47.120;18.370;2023-12-20T05:55:45;-0.31;95.18
83472;SHT30;74051;47.120;18.370;2023-12-20T05:58:12;-0.20;96.45
83472;SHT30;74051;47.120;18.370;2023-12-20T06:00:39;-0.10;95.69
83472;SHT30;74051;47.120;18.370;2023-12-20T06:03:05;-0.17;94.97
83472;SHT30;74051;47.120;18.370;2023-12-20T06:05:32;-0.69;94.70
83472;SHT30;74051;47.120;18.370;2023-12-20T06:07:58;-0.67;93.94
83472;SHT30;74051;47.120;18.370;2023-12-20T06:10:27;-0.48;96.50
83472;SHT30;74051;47.120;18.370;2023-12-20T06:12:53;-0.40;96.55
83472;SHT30;74051;47.120;18.370;2023-12-20T06:15:20;-0.53;94.66
83472;SHT30;74051;47.120;18.370;2023-12-20T06:17:46;-0.56;95.76
83472;SHT30;74051;47.120;18.370;2023-12-20T06:20:13;-0.60;96.32
83472;SHT30;74051;47.120;18.370;2023-12-20T06:22:39;-0.47;97.96
83472;SHT30;74051;47.120;18.370;2023-12-20T06:25:06;-0.53;97.54
83472;SHT30;74051;47.120;18.370;2023-12-20T06:27:33;-0.41;97.57
83472;SHT30;74051;47.120;18.370;2023-12-20T06:29:59;-0.38;97.30
83472;SHT30;74051;47.120;18.370;2023-12-20T06:32:25;-0.34;97.88
83472;SHT30;74051;47.120;18.370;2023-12-20T06:34:51;-0.27;98.57
83472;SHT30;74051;47.120;18.370;2023-12-20T06:37:18;-0.16;98.43
83472;SHT30;74051;47.120;18.370;2023-12-20T06:39:44;0.26;99.45
83472;SHT30;74051;47.120;18.370;2023-12-20T06:42:10;0.35;97.63
83472;SHT30;74051;47.120;18.370;2023-12-20T06:44:38;0.70;96.92
83472;SHT30;74051;47.120;18.370;2023-12-20T06:47:04;0.87;94.46
83472;SHT30;74051;47.120;18.370;2023-12-20T06:49:31;0.91;92.75
83472;SHT30;74051;47.120;18.370;2023-12-20T06:51:57;0.89;92.85
83472;SHT30;74051;47.120;18.370;2023-12-20T06:54:24;0.56;92.61
83472;SHT30;74051;47.120;18.370;2023-12-20T06:56:50;0.44;92.55
83472;SHT30;74051;47.120;18.370;2023-12-20T06:59:17;0.39;93.64
83472;SHT30;74051;47.120;18.370;2023-12-20T07:01:47;0.25;94.23
83472;SHT30;74051;47.120;18.370;2023-12-20T07:04:15;0.24;95.90
83472;SHT30;74051;47.120;18.370;2023-12-20T07:06:41;0.32;95.85
83472;SHT30;74051;47.120;18.370;2023-12-20T07:09:08;0.21;92.63
83472;SHT30;74051;47.120;18.370;2023-12-20T07:11:34;0.26;95.89
83472;SHT30;74051;47.120;18.370;2023-12-20T07:14:01;0.28;94.54
83472;SHT30;74051;47.120;18.370;2023-12-20T07:16:27;0.38;95.89
83472;SHT30;74051;47.120;18.370;2023-12-20T07:18:53;0.45;96.43
83472;SHT30;74051;47.120;18.370;2023-12-20T07:21:19;0.28;91.75
83472;SHT30;74051;47.120;18.370;2023-12-20T07:23:46;0.49;96.81
83472;SHT30;74051;47.120;18.370;2023-12-20T07:26:12;0.15;91.52
83472;SHT30;74051;47.120;18.370;2023-12-20T07:28:39;0.31;93.94
83472;SHT30;74051;47.120;18.370;2023-12-20T07:31:06;0.39;95.28
83472;SHT30;74051;47.120;18.370;2023-12-20T07:33:33;0.26;92.65
83472;SHT30;74051;47.120;18.370;2023-12-20T07:35:59;0.35;95.19
83472;SHT30;74051;47.120;18.370;2023-12-20T07:38:27;0.45;94.88
83472;SHT30;74051;47.120;18.370;2023-12-20T07:40:53;0.44;92.60
83472;SHT30;74051;47.120;18.370;2023-12-20T07:43:19;0.53;95.09
83472;SHT30;74051;47.120;18.370;2023-12-20T07:45:45;0.62;94.85
83472;SHT30;74051;47.120;18.370;2023-12-20T07:48:12;0.60;92.41
83472;SHT30;74051;47.120;18.370;2023-12-20T07:50:38;0.75;95.17
83472;SHT30;74051;47.120;18.370;2023-12-20T07:53:04;0.70;93.58
83472;SHT30;74051;47.120;18.370;2023-12-20T07:55:31;0.31;90.18
83472;SHT30;74051;47.120;18.370;2023-12-20T07:57:57;0.33;94.50
83472;SHT30;74051;47.120;18.370;2023-12-20T08:00:24;0.49;94.50
83472;SHT30;74051;47.120;18.370;2023-12-20T08:02:50;0.63;95.73
83472;SHT30;74051;47.120;18.370;2023-12-20T08:05:17;0.73;92.94
83472;SHT30;74051;47.120;18.370;2023-12-20T08:07:43;0.91;94.31
83472;SHT30;74051;47.120;18.370;2023-12-20T08:10:10;0.87;90.06
83472;SHT30;74051;47.120;18.370;2023-12-20T08:12:37;0.96;92.19
83472;SHT30;74051;47.120;18.370;2023-12-20T08:15:06;0.65;90.91
83472;SHT30;74051;47.120;18.370;2023-12-20T08:17:32;0.77;94.25
83472;SHT30;74051;47.120;18.370;2023-12-20T08:19:58;0.90;91.98
83472;SHT30;74051;47.120;18.370;2023-12-20T08:22:26;1.07;91.08
83472;SHT30;74051;47.120;18.370;2023-12-20T08:24:52;1.03;89.68
83472;SHT30;74051;47.120;18.370;2023-12-20T08:27:20;1.03;89.43
83472;SHT30;74051;47.120;18.370;2023-12-20T08:29:46;0.81;89.86
83472;SHT30;74051;47.120;18.370;2023-12-20T08:32:13;0.96;92.18
83472;SHT30;74051;47.120;18.370;2023-12-20T08:34:40;1.10;91.22
83472;SHT30;74051;47.120;18.370;2023-12-20T08:37:07;1.26;92.27
83472;SHT30;74051;47.120;18.370;2023-12-20T08:39:33;1.08;89.07
83472;SHT30;74051;47.120;18.370;2023-12-20T08:42:00;1.17;93.37
83472;SHT30;74051;47.120;18.370;2023-12-20T08:44:26;1.26;90.55
83472;SHT30;74051;47.120;18.370;2023-12-20T08:46:52;1.31;89.63
83472;SHT30;74051;47.120;18.370;2023-12-20T08:49:19;1.42;88.73
83472;SHT30;74051;47.120;18.370;2023-12-20T08:51:45;1.54;88.50
83472;SHT30;74051;47.120;18.370;2023-12-20T08:54:12;0.84;85.60
83472;SHT30;74051;47.120;18.370;2023-12-20T08:56:39;1.52;87.61
83472;SHT30;74051;47.120;18.370;2023-12-20T08:59:05;1.52;87.41
83472;SHT30;74051;47.120;18.370;2023-12-20T09:01:31;1.72;89.85
83472;SHT30;74051;47.120;18.370;2023-12-20T09:03:58;1.34;87.76
83472;SHT30;74051;47.120;18.370;2023-12-20T09:06:24;1.42;87.04
83472;SHT30;74051;47.120;18.370;2023-12-20T09:08:51;1.49;88.14
83472;SHT30;74051;47.120;18.370;2023-12-20T09:11:18;1.80;89.35
83472;SHT30;74051;47.120;18.370;2023-12-20T09:13:44;1.66;87.29
83472;SHT30;74051;47.120;18.370;2023-12-20T09:16:10;1.54;88.74
83472;SHT30;74051;47.120;18.370;2023-12-20T09:18:37;1.30;87.60
83472;SHT30;74051;47.120;18.370;2023-12-20T09:21:03;1.39;91.83
83472;SHT30;74051;47.120;18.370;2023-12-20T09:23:29;1.72;88.93
83472;SHT30;74051;47.120;18.370;2023-12-20T09:25:56;1.86;87.79
83472;SHT30;74051;47.120;18.370;2023-12-20T09:28:22;2.07;87.53
83472;SHT30;74051;47.120;18.370;2023-12-20T09:30:48;2.18;87.12
83472;SHT30;74051;47.120;18.370;2023-12-20T09:33:15;2.33;88.76
83472;SHT30;74051;47.120;18.370;2023-12-20T09:35:42;2.23;85.67
83472;SHT30;74051;47.120;18.370;2023-12-20T09:38:08;2.41;86.60
83472;SHT30;74051;47.120;18.370;2023-12-20T09:40:36;2.58;83.26
83472;SHT30;74051;47.120;18.370;2023-12-20T09:43:19;2.85;84.24
83472;SHT30;74051;47.120;18.370;2023-12-20T09:45:47;2.81;83.80
83472;SHT30;74051;47.120;18.370;2023-12-20T09:48:17;3.03;84.28
83472;SHT30;74051;47.120;18.370;2023-12-20T09:50:44;3.12;80.54
83472;SHT30;74051;47.120;18.370;2023-12-20T09:53:15;3.40;82.62
83472;SHT30;74051;47.120;18.370;2023-12-20T09:55:41;3.26;83.17
83472;SHT30;74051;47.120;18.370;2023-12-20T09:58:08;3.03;81.69
83472;SHT30;74051;47.120;18.370;2023-12-20T10:00:35;3.24;80.74
83472;SHT30;74051;47.120;18.370;2023-12-20T10:03:01;3.34;80.99
83472;SHT30;74051;47.120;18.370;2023-12-20T10:05:32;3.44;84.94
83472;SHT30;74051;47.120;18.370;2023-12-20T10:07:59;3.51;83.09
83472;SHT30;74051;47.120;18.370;2023-12-20T10:10:26;3.60;80.85
83472;SHT30;74051;47.120;18.370;2023-12-20T10:13:09;3.43;81.69
83472;SHT30;74051;47.120;18.370;2023-12-20T10:15:36;3.79;84.17
83472;SHT30;74051;47.120;18.370;2023-12-20T10:18:04;4.02;82.06
83472;SHT30;74051;47.120;18.370;2023-12-20T10:20:31;4.01;78.67
83472;SHT30;74051;47.120;18.370;2023-12-20T10:22:58;4.49;78.56
83472;SHT30;74051;47.120;18.370;2023-12-20T10:25:25;4.60;80.13
83472;SHT30;74051;47.120;18.370;2023-12-20T10:28:09;4.58;78.15
83472;SHT30;74051;47.120;18.370;2023-12-20T10:30:35;4.63;79.07
83472;SHT30;74051;47.120;18.370;2023-12-20T10:33:02;4.71;77.25
83472;SHT30;74051;47.120;18.370;2023-12-20T10:35:28;4.70;77.25
83472;SHT30;74051;47.120;18.370;2023-12-20T10:37:56;4.06;76.51
83472;SHT30;74051;47.120;18.370;2023-12-20T10:40:22;3.82;80.34
83472;SHT30;74051;47.120;18.370;2023-12-20T10:42:50;4.85;79.74
83472;SHT30;74051;47.120;18.370;2023-12-20T10:45:17;4.95;76.98
83472;SHT30;74051;47.120;18.370;2023-12-20T10:47:46;5.51;76.80
83472;SHT30;74051;47.120;18.370;2023-12-20T10:50:13;5.97;78.67
83472;SHT30;74051;47.120;18.370;2023-12-20T10:52:40;6.04;77.18
83472;SHT30;74051;47.120;18.370;2023-12-20T10:55:07;5.88;74.53
83472;SHT30;74051;47.120;18.370;2023-12-20T10:57:35;4.89;79.04
83472;SHT30;74051;47.120;18.370;2023-12-20T11:00:02;5.23;76.66
83472;SHT30;74051;47.120;18.370;2023-12-20T11:02:33;6.05;74.20
83472;SHT30;74051;47.120;18.370;2023-12-20T11:07:55;5.93;76.37
83472;SHT30;74051;47.120;18.370;2023-12-20T11:10:27;6.05;78.40
83472;SHT30;74051;47.120;18.370;2023-12-20T11:13:17;6.19;80.54
83472;SHT30;74051;47.120;18.370;2023-12-20T11:15:46;5.70;80.06
83472;SHT30;74051;47.120;18.370;2023-12-20T11:18:14;6.17;81.07
83472;SHT30;74051;47.120;18.370;2023-12-20T11:20:42;6.15;78.88
83472;SHT30;74051;47.120;18.370;2023-12-20T11:23:09;6.60;79.38
83472;SHT30;74051;47.120;18.370;2023-12-20T11:25:55;6.87;79.58
83472;SHT30;74051;47.120;18.370;2023-12-20T11:28:23;7.15;78.40
83472;SHT30;74051;47.120;18.370;2023-12-20T11:30:52;7.36;76.45
83472;SHT30;74051;47.120;18.370;2023-12-20T11:33:23;7.79;75.71
83472;SHT30;74051;47.120;18.370;2023-12-20T11:35:50;8.28;74.32
83472;SHT30;74051;47.120;18.370;2023-12-20T11:38:20;8.73;73.89
83472;SHT30;74051;47.120;18.370;2023-12-20T11:40:48;8.55;74.71
83472;SHT30;74051;47.120;18.370;2023-12-20T11:43:37;8.61;75.81
83472;SHT30;74051;47.120;18.370;2023-12-20T11:46:05;8.24;77.59
83472;SHT30;74051;47.120;18.370;2023-12-20T11:48:34;8.24;77.62
83472;SHT30;74051;47.120;18.370;2023-12-20T11:51:01;8.49;76.92
83472;SHT30;74051;47.120;18.370;2023-12-20T11:53:27;8.76;74.99
83472;SHT30;74051;47.120;18.370;2023-12-20T11:55:54;8.92;74.80
83472;SHT30;74051;47.120;18.370;2023-12-20T11:58:20;9.13;74.14
83472;SHT30;74051;47.120;18.370;2023-12-20T12:00:49;9.27;73.12
83472;SHT30;74051;47.120;18.370;2023-12-20T12:03:15;9.17;71.75
83472;SHT30;74051;47.120;18.370;2023-12-20T12:05:42;9.28;72.13
83472;SHT30;74051;47.120;18.370;2023-12-20T12:08:09;9.50;72.12
83472;SHT30;74051;47.120;18.370;2023-12-20T12:10:35;9.52;70.32
83472;SHT30;74051;47.120;18.370;2023-12-20T12:13:02;9.72;69.38
83472;SHT30;74051;47.120;18.370;2023-12-20T12:15:29;9.72;68.73
83472;SHT30;74051;47.120;18.370;2023-12-20T12:17:56;9.65;68.52
83472;SHT30;74051;47.120;18.370;2023-12-20T12:20:23;9.88;66.48
83472;SHT30;74051;47.120;18.370;2023-12-20T12:23:04;9.98;67.63
83472;SHT30;74051;47.120;18.370;2023-12-20T12:25:31;10.06;65.65
83472;SHT30;74051;47.120;18.370;2023-12-20T12:27:58;10.23;66.20
83472;SHT30;74051;47.120;18.370;2023-12-20T12:30:25;10.14;64.81
83472;SHT30;74051;47.120;18.370;2023-12-20T12:32:52;10.17;67.53
83472;SHT30;74051;47.120;18.370;2023-12-20T12:35:19;10.14;68.08
83472;SHT30;74051;47.120;18.370;2023-12-20T12:37:46;10.03;66.35
83472;SHT30;74051;47.120;18.370;2023-12-20T12:40:14;10.17;66.67
83472;SHT30;74051;47.120;18.370;2023-12-20T12:42:41;10.14;66.76
83472;SHT30;74051;47.120;18.370;2023-12-20T12:45:09;10.32;64.38
83472;SHT30;74051;47.120;18.370;2023-12-20T12:47:35;10.87;63.44
83472;SHT30;74051;47.120;18.370;2023-12-20T12:50:02;10.30;64.26
83472;SHT30;74051;47.120;18.370;2023-12-20T12:52:30;9.75;65.56
83472;SHT30;74051;47.120;18.370;2023-12-20T12:54:57;9.55;67.66
83472;SHT30;74051;47.120;18.370;2023-12-20T12:57:24;9.26;68.54
83472;SHT30;74051;47.120;18.370;2023-12-20T12:59:50;8.90;69.28
83472;SHT30;74051;47.120;18.370;2023-12-20T13:02:16;8.73;71.06
83472;SHT30;74051;47.120;18.370;2023-12-20T13:04:42;8.55;69.27
83472;SHT30;74051;47.120;18.370;2023-12-20T13:07:10;8.35;70.32
83472;SHT30;74051;47.120;18.370;2023-12-20T13:09:39;8.27;72.80
83472;SHT30;74051;47.120;18.370;2023-12-20T13:12:06;8.21;73.82
83472;SHT30;74051;47.120;18.370;2023-12-20T13:14:34;8.08;73.56
83472;SHT30;74051;47.120;18.370;2023-12-20T13:17:01;7.96;73.57
83472;SHT30;74051;47.120;18.370;2023-12-20T13:19:28;7.96;72.98
83472;SHT30;74051;47.120;18.370;2023-12-20T13:21:54;7.87;74.58
83472;SHT30;74051;47.120;18.370;2023-12-20T13:24:21;7.65;73.19
83472;SHT30;74051;47.120;18.370;2023-12-20T13:26:47;7.54;76.60
83472;SHT30;74051;47.120;18.370;2023-12-20T13:29:14;7.41;77.21
83472;SHT30;74051;47.120;18.370;2023-12-20T13:31:40;7.32;76.85
83472;SHT30;74051;47.120;18.370;2023-12-20T13:34:07;7.31;77.88
83472;SHT30;74051;47.120;18.370;2023-12-20T13:36:33;7.31;77.11
83472;SHT30;74051;47.120;18.370;2023-12-20T13:39:00;7.32;74.08
83472;SHT30;74051;47.120;18.370;2023-12-20T13:41:26;7.35;78.40
83472;SHT30;74051;47.120;18.370;2023-12-20T13:43:52;7.29;76.68
83472;SHT30;74051;47.120;18.370;2023-12-20T13:46:20;7.21;75.90
83472;SHT30;74051;47.120;18.370;2023-12-20T13:48:46;7.19;79.87
83472;SHT30;74051;47.120;18.370;2023-12-20T13:51:12;7.05;78.46
83472;SHT30;74051;47.120;18.370;2023-12-20T13:53:39;7.09;74.89
83472;SHT30;74051;47.120;18.370;2023-12-20T13:56:05;7.00;75.49
83472;SHT30;74051;47.120;18.370;2023-12-20T13:58:32;7.03;76.66
83472;SHT30;74051;47.120;18.370;2023-12-20T14:00:58;6.96;75.72
83472;SHT30;74051;47.120;18.370;2023-12-20T14:03:25;6.88;77.33
83472;SHT30;74051;47.120;18.370;2023-12-20T14:05:51;6.88;79.00
83472;SHT30;74051;47.120;18.370;2023-12-20T14:08:18;6.84;78.02
83472;SHT30;74051;47.120;18.370;2023-12-20T14:10:44;6.84;78.38
83472;SHT30;74051;47.120;18.370;2023-12-20T14:13:10;6.86;77.86
83472;SHT30;74051;47.120;18.370;2023-12-20T14:15:36;6.88;78.12
83472;SHT30;74051;47.120;18.370;2023-12-20T14:18:06;6.88;77.96
83472;SHT30;74051;47.120;18.370;2023-12-20T14:20:34;6.87;78.46
83472;SHT30;74051;47.120;18.370;2023-12-20T14:23:03;6.84;81.21
83472;SHT30;74051;47.120;18.370;2023-12-20T14:25:30;6.76;78.93
83472;SHT30;74051;47.120;18.370;2023-12-20T14:27:57;6.65;82.34
83472;SHT30;74051;47.120;18.370;2023-12-20T14:30:24;6.45;80.82
83472;SHT30;74051;47.120;18.370;2023-12-20T14:32:50;6.38;81.01
83472;SHT30;74051;47.120;18.370;2023-12-20T14:35:17;6.38;80.05
83472;SHT30;74051;47.120;18.370;2023-12-20T14:37:43;6.36;81.82
83472;SHT30;74051;47.120;18.370;2023-12-20T14:40:11;6.33;81.08
83472;SHT30;74051;47.120;18.370;2023-12-20T14:42:44;6.38;81.75
83472;SHT30;74051;47.120;18.370;2023-12-20T14:45:11;6.33;82.08
83472;SHT30;74051;47.120;18.370;2023-12-20T14:47:40;6.35;84.33
83472;SHT30;74051;47.120;18.370;2023-12-20T14:50:07;6.35;79.06
83472;SHT30;74051;47.120;18.370;2023-12-20T14:52:33;6.28;83.51
83472;SHT30;74051;47.120;18.370;2023-12-20T14:55:01;6.25;81.86
83472;SHT30;74051;47.120;18.370;2023-12-20T14:57:29;6.38;80.54
83472;SHT30;74051;47.120;18.370;2023-12-20T14:59:58;6.39;83.65
83472;SHT30;74051;47.120;18.370;2023-12-20T15:02:25;6.32;80.94
83472;SHT30;74051;47.120;18.370;2023-12-20T15:04:51;6.33;79.98
83472;SHT30;74051;47.120;18.370;2023-12-20T15:07:17;6.30;81.65
83472;SHT30;74051;47.120;18.370;2023-12-20T15:09:44;6.32;82.53
83472;SHT30;74051;47.120;18.370;2023-12-20T15:12:12;6.32;80.21
83472;SHT30;74051;47.120;18.370;2023-12-20T15:14:39;6.32;80.91
83472;SHT30;74051;47.120;18.370;2023-12-20T15:17:05;6.36;81.65
83472;SHT30;74051;47.120;18.370;2023-12-20T15:19:31;6.40;81.93
83472;SHT30;74051;47.120;18.370;2023-12-20T15:21:58;6.38;80.82
83472;SHT30;74051;47.120;18.370;2023-12-20T15:24:26;6.42;81.52
83472;SHT30;74051;47.120;18.370;2023-12-20T15:26:54;6.40;81.08